Rosebud, Missouri
Current Conditions -  °F | °C
As of 9:35 PM on Monday 22 Dec 2014 (Local Time) from KFYG Reporting Station
Broken Clouds Broken Clouds  
Wind Chill: 45°   Ceiling: 4100
Heat Index: 48°   Visibility: 10mi
Dew Point: 48°   Wind: 8mph
Humidity: 100%   Direction: 180°S
Pressure: 29.52"   Gusts: NA
Location:  38.39°N, 91.4°W
Report Text: KFYG 230335Z AUTO 18007KT 10SM FEW018 SCT030 BKN041 09/09 A2952 RMK AO2
Loading
Personal Weather Stations






























Interactive Weather Map New forecast layout! Learn more

10-Day Weather Forecast

Advertisements
Track Severe Weather on mobile